createdAt,value
2019-02-12T00:00:58.057Z,2.80
2019-02-12T00:03:27.169Z,2.97
2019-02-12T00:05:56.234Z,3.27
2019-02-12T00:08:25.206Z,2.60
2019-02-12T00:10:54.346Z,2.50
2019-02-12T00:13:23.420Z,2.57
2019-02-12T00:15:52.461Z,2.83
2019-02-12T00:18:21.584Z,2.47
2019-02-12T00:20:50.625Z,3.27
2019-02-12T00:23:19.798Z,3.17
2019-02-12T00:25:48.897Z,2.50
2019-02-12T00:28:17.910Z,4.37
2019-02-12T00:30:46.873Z,4.07
2019-02-12T00:33:15.918Z,3.90
2019-02-12T00:35:45.196Z,3.50
2019-02-12T00:38:14.317Z,2.77
2019-02-12T00:40:43.406Z,3.03
2019-02-12T00:43:12.429Z,2.57
2019-02-12T00:45:41.297Z,3.47
2019-02-12T00:48:10.270Z,2.83
2019-02-12T00:50:39.357Z,3.13
2019-02-12T00:53:08.324Z,3.43
2019-02-12T00:55:37.357Z,3.00
2019-02-12T00:58:06.317Z,3.47
2019-02-12T01:00:35.287Z,2.90
2019-02-12T01:03:04.354Z,2.80
2019-02-12T01:05:33.290Z,2.67
2019-02-12T01:08:02.542Z,2.90
2019-02-12T01:10:31.593Z,2.60
2019-02-12T01:13:00.681Z,2.70
2019-02-12T01:15:29.742Z,3.53
2019-02-12T01:17:58.914Z,2.77
2019-02-12T01:20:27.944Z,3.17
2019-02-12T01:22:57.041Z,3.23
2019-02-12T01:25:26.006Z,2.70
2019-02-12T01:27:55.017Z,2.50
2019-02-12T01:30:24.187Z,2.17
2019-02-12T01:32:53.134Z,2.80
2019-02-12T01:35:22.249Z,2.30
2019-02-12T01:37:51.382Z,3.53
2019-02-12T01:40:20.470Z,2.90
2019-02-12T01:42:49.466Z,2.70
2019-02-12T01:45:18.531Z,2.83
2019-02-12T01:47:47.572Z,2.70
2019-02-12T01:50:16.586Z,2.00
2019-02-12T01:52:45.561Z,2.30
2019-02-12T01:55:14.425Z,2.25
2019-02-12T01:57:43.426Z,1.87
2019-02-12T02:00:14.089Z,1.70
2019-02-12T02:02:43.493Z,2.07
2019-02-12T02:05:12.513Z,2.30
2019-02-12T02:07:41.546Z,1.23
2019-02-12T02:10:15.977Z,2.37
2019-02-12T02:12:45.015Z,1.37
2019-02-12T02:15:14.561Z,1.47
2019-02-12T02:17:43.618Z,1.73
2019-02-12T02:20:13.498Z,1.93
2019-02-12T02:22:43.522Z,2.27
2019-02-12T02:25:12.614Z,2.23
2019-02-12T02:27:41.591Z,1.80
2019-02-12T02:30:11.866Z,1.53
2019-02-12T02:32:40.896Z,2.77
2019-02-12T02:35:10.124Z,2.43
2019-02-12T02:37:39.289Z,2.20
2019-02-12T02:40:08.850Z,2.57
2019-02-12T02:42:37.916Z,2.30
2019-02-12T02:45:07.658Z,2.60
2019-02-12T02:47:36.725Z,2.57
2019-02-12T02:50:06.158Z,2.92
2019-02-12T02:52:35.149Z,2.43
2019-02-12T02:55:04.418Z,1.90
2019-02-12T02:57:33.409Z,2.47
2019-02-12T03:00:02.438Z,2.23
2019-02-12T03:02:31.516Z,2.27
2019-02-12T03:05:00.833Z,2.20
2019-02-12T03:07:29.930Z,1.77
2019-02-12T03:09:58.906Z,2.43
2019-02-12T03:12:27.928Z,2.57
2019-02-12T03:14:57.014Z,2.10
2019-02-12T03:17:26.384Z,1.67
2019-02-12T03:19:55.613Z,2.37
2019-02-12T03:22:24.678Z,1.97
2019-02-12T03:24:53.669Z,1.57
2019-02-12T03:27:22.794Z,1.80
2019-02-12T03:29:51.883Z,1.60
2019-02-12T03:32:20.763Z,1.17
2019-02-12T03:34:49.802Z,1.43
2019-02-12T03:37:18.862Z,2.23
2019-02-12T03:39:47.841Z,1.20
2019-02-12T03:42:17.026Z,1.30
2019-02-12T03:44:45.992Z,1.03
2019-02-12T03:47:15.026Z,1.30
2019-02-12T03:49:44.126Z,1.27
2019-02-12T03:52:13.362Z,1.70
2019-02-12T03:54:42.528Z,1.13
2019-02-12T03:57:11.437Z,2.10
2019-02-12T03:59:40.437Z,2.07
2019-02-12T04:02:09.399Z,1.77
2019-02-12T04:04:38.350Z,1.43
2019-02-12T04:07:07.702Z,1.70
2019-02-12T04:09:36.702Z,1.20
2019-02-12T04:12:05.621Z,1.57
2019-02-12T04:14:34.572Z,1.20
2019-02-12T04:17:03.526Z,1.63
2019-02-12T04:19:32.473Z,1.73
2019-02-12T04:22:02.109Z,1.60
2019-02-12T04:24:31.147Z,1.20
2019-02-12T04:27:00.096Z,1.90
2019-02-12T04:29:29.092Z,1.13
2019-02-12T04:31:58.068Z,1.67
2019-02-12T04:34:27.040Z,1.30
2019-02-12T04:36:56.257Z,1.67
2019-02-12T04:39:26.362Z,1.20
2019-02-12T04:41:55.241Z,1.20
2019-02-12T04:44:24.119Z,1.93
2019-02-12T04:46:53.142Z,1.20
2019-02-12T04:49:22.138Z,1.67
2019-02-12T04:51:51.286Z,1.00
2019-02-12T04:54:20.303Z,1.53
2019-02-12T04:56:49.503Z,1.33
2019-02-12T04:59:18.426Z,1.60
2019-02-12T05:01:47.394Z,1.57
2019-02-12T05:04:16.586Z,1.40
2019-02-12T05:06:45.510Z,1.50
2019-02-12T05:09:23.005Z,2.03
2019-02-12T05:11:57.525Z,1.63
2019-02-12T05:14:26.497Z,2.10
2019-02-12T05:16:55.829Z,2.40
2019-02-12T05:19:24.992Z,2.40
2019-02-12T05:21:54.086Z,2.00
2019-02-12T05:24:23.129Z,2.33
2019-02-12T05:26:52.197Z,2.90
2019-02-12T05:29:21.283Z,3.00
2019-02-12T05:31:50.268Z,3.17
2019-02-12T05:34:19.254Z,3.00
2019-02-12T05:36:48.149Z,2.13
2019-02-12T05:39:17.178Z,2.83
2019-02-12T05:41:46.502Z,3.27
2019-02-12T05:44:15.558Z,3.33
2019-02-12T05:46:44.549Z,3.17
2019-02-12T05:49:13.482Z,3.67
2019-02-12T05:51:42.348Z,4.00
2019-02-12T05:54:11.417Z,3.50
2019-02-12T05:56:40.300Z,3.90
2019-02-12T05:59:09.323Z,3.10
2019-02-12T06:01:38.201Z,3.20
2019-02-12T06:04:07.218Z,3.03
2019-02-12T06:06:36.430Z,2.97
2019-02-12T06:09:06.415Z,3.10
2019-02-12T06:11:35.525Z,2.30
2019-02-12T06:14:04.512Z,3.73
2019-02-12T06:16:33.488Z,2.90
2019-02-12T06:19:02.426Z,2.60
2019-02-12T06:21:31.368Z,2.43
2019-02-12T06:24:01.238Z,2.80
2019-02-12T06:26:30.201Z,2.10
2019-02-12T06:28:59.298Z,2.73
2019-02-12T06:31:28.294Z,2.37
2019-02-12T06:33:57.339Z,2.80
2019-02-12T06:36:26.407Z,2.30
2019-02-12T06:38:55.504Z,3.10
2019-02-12T06:41:24.573Z,2.67
2019-02-12T06:44:00.983Z,2.30
2019-02-12T06:46:29.974Z,2.17
2019-02-12T06:48:59.030Z,2.10
2019-02-12T06:51:28.061Z,1.80
2019-02-12T06:53:57.156Z,1.93
2019-02-12T06:56:26.209Z,2.00
2019-02-12T06:58:55.096Z,1.83
2019-02-12T07:01:24.085Z,2.07
2019-02-12T07:04:01.647Z,2.13
2019-02-12T07:06:49.461Z,2.20
2019-02-12T07:09:32.074Z,1.73
2019-02-12T07:12:40.807Z,1.87
2019-02-12T07:15:35.091Z,2.10
2019-02-12T07:18:51.578Z,2.27
2019-02-12T07:21:57.805Z,2.77
2019-02-12T07:24:35.749Z,1.93
2019-02-12T07:27:44.100Z,1.83
2019-02-12T07:30:49.269Z,1.87
2019-02-12T07:33:50.083Z,1.87
2019-02-12T07:36:38.024Z,2.03
2019-02-12T07:39:20.854Z,2.67
2019-02-12T07:42:27.010Z,1.80
2019-02-12T07:45:29.073Z,1.80
2019-02-12T07:48:41.029Z,1.57
2019-02-12T07:51:57.392Z,1.90
2019-02-12T07:54:59.540Z,1.70
2019-02-12T07:58:27.101Z,1.90
2019-02-12T08:01:29.939Z,2.00
2019-02-12T08:04:28.141Z,1.63
2019-02-12T08:07:37.461Z,2.40
2019-02-12T08:10:31.603Z,1.87
2019-02-12T08:13:18.185Z,2.43
2019-02-12T08:16:02.666Z,2.03
2019-02-12T08:19:04.283Z,1.27
2019-02-12T08:21:46.829Z,1.50
2019-02-12T08:24:53.965Z,1.87
2019-02-12T08:28:15.243Z,1.70
2019-02-12T08:31:06.441Z,1.83
2019-02-12T08:34:27.452Z,2.30
2019-02-12T08:37:18.845Z,2.17
2019-02-12T08:40:41.544Z,2.20
2019-02-12T08:43:42.457Z,2.37
2019-02-12T08:46:38.369Z,2.27
2019-02-12T08:50:04.049Z,2.40
2019-02-12T08:53:23.413Z,1.83
2019-02-12T08:56:21.370Z,1.97
2019-02-12T08:59:11.550Z,2.13
2019-02-12T09:02:24.012Z,1.67
2019-02-12T09:05:29.400Z,2.10
2019-02-12T09:08:34.132Z,1.50
2019-02-12T09:11:43.193Z,1.67
2019-02-12T09:14:20.001Z,2.13
2019-02-12T09:17:25.241Z,2.02
2019-02-12T09:20:24.938Z,1.40
2019-02-12T09:23:28.755Z,2.07
2019-02-12T09:26:12.841Z,1.93
2019-02-12T09:29:20.162Z,1.73
2019-02-12T09:32:26.326Z,2.10
2019-02-12T09:35:11.302Z,1.90
2019-02-12T09:38:11.719Z,1.93
2019-02-12T09:41:21.292Z,1.80
2019-02-12T09:44:30.314Z,1.77
2019-02-12T09:47:48.267Z,1.73
2019-02-12T09:50:58.508Z,2.00
2019-02-12T09:54:13.652Z,2.03
2019-02-12T09:57:05.316Z,2.40
2019-02-12T09:59:53.728Z,2.00
2019-02-12T10:02:58.926Z,2.20
2019-02-12T10:05:51.623Z,1.57
2019-02-12T10:08:55.841Z,1.63
2019-02-12T10:12:18.073Z,1.70
2019-02-12T10:15:23.921Z,2.00
2019-02-12T10:18:36.663Z,1.97
2019-02-12T10:21:39.335Z,5.33
2019-02-12T10:24:24.539Z,1.90
2019-02-12T10:27:46.956Z,2.17
2019-02-12T10:30:56.076Z,1.90
2019-02-12T10:33:25.061Z,1.43
2019-02-12T10:35:54.107Z,1.37
2019-02-12T10:38:23.032Z,1.10
2019-02-12T10:40:52.023Z,1.67
2019-02-12T10:43:21.121Z,1.30
2019-02-12T10:45:50.172Z,1.50
2019-02-12T10:48:19.217Z,1.60
2019-02-12T10:50:48.373Z,2.13
2019-02-12T10:53:17.477Z,1.60
2019-02-12T10:55:46.550Z,1.43
2019-02-12T10:58:15.729Z,2.17
2019-02-12T11:00:44.763Z,2.00
2019-02-12T11:03:20.219Z,1.97
2019-02-12T11:05:49.229Z,2.27
2019-02-12T11:08:18.178Z,1.97
2019-02-12T11:10:47.454Z,1.70
2019-02-12T11:13:16.395Z,1.60
2019-02-12T11:15:45.392Z,2.20
2019-02-12T11:18:14.321Z,1.70
2019-02-12T11:20:43.885Z,1.40
2019-02-12T11:23:12.985Z,1.60
2019-02-12T11:25:42.081Z,1.53
2019-02-12T11:28:11.100Z,1.70
2019-02-12T11:30:40.140Z,1.97
2019-02-12T11:33:09.278Z,1.30
2019-02-12T11:35:38.415Z,1.80
2019-02-12T11:38:07.464Z,1.70
2019-02-12T11:40:36.510Z,1.43
2019-02-12T11:43:05.715Z,1.83
2019-02-12T11:45:34.797Z,2.03
2019-02-12T11:48:03.883Z,1.53
2019-02-12T11:50:33.906Z,1.37
2019-02-12T11:53:02.916Z,1.57
2019-02-12T11:55:31.986Z,1.73
2019-02-12T11:58:00.969Z,1.70
2019-02-12T12:00:35.669Z,1.20
2019-02-12T12:03:04.684Z,1.43
2019-02-12T12:05:33.643Z,1.85
2019-02-12T12:08:02.669Z,1.53
2019-02-12T12:10:31.681Z,1.77
2019-02-12T12:13:00.729Z,1.37
2019-02-12T12:15:29.799Z,1.70
2019-02-12T12:17:58.890Z,1.90
2019-02-12T12:20:27.844Z,1.80
2019-02-12T12:22:56.703Z,2.10
2019-02-12T12:25:25.682Z,1.70
2019-02-12T12:27:54.771Z,1.97
2019-02-12T12:30:23.816Z,2.33
2019-02-12T12:32:52.701Z,1.80
2019-02-12T12:35:21.644Z,2.25
2019-02-12T12:37:50.681Z,2.07
2019-02-12T12:40:19.724Z,1.77
2019-02-12T12:42:48.706Z,2.10
2019-02-12T12:45:17.707Z,2.00
2019-02-12T12:47:46.703Z,1.67
2019-02-12T12:50:15.653Z,1.83
2019-02-12T12:52:44.687Z,2.20
2019-02-12T12:55:13.632Z,1.63
2019-02-12T12:57:42.581Z,1.80
2019-02-12T13:00:12.204Z,1.40
2019-02-12T13:02:41.691Z,1.60
2019-02-12T13:05:11.193Z,2.30
2019-02-12T13:07:40.254Z,1.60
2019-02-12T13:10:11.529Z,2.00
2019-02-12T13:12:40.516Z,1.63
2019-02-12T13:15:10.773Z,2.13
2019-02-12T13:17:39.860Z,1.97
2019-02-12T13:20:11.467Z,1.87
2019-02-12T13:22:40.497Z,2.50
2019-02-12T13:25:10.413Z,2.70
2019-02-12T13:27:39.466Z,2.17
2019-02-12T13:30:11.775Z,2.20
2019-02-12T13:32:40.855Z,2.63
2019-02-12T13:35:10.533Z,2.70
2019-02-12T13:37:39.582Z,2.43
2019-02-12T13:40:10.355Z,2.53
2019-02-12T13:42:39.406Z,3.00
2019-02-12T13:45:10.458Z,2.83
2019-02-12T13:47:39.525Z,3.13
2019-02-12T13:50:09.348Z,3.07
2019-02-12T13:52:38.355Z,3.97
2019-02-12T13:55:07.734Z,3.00
2019-02-12T13:57:36.752Z,3.60
2019-02-12T14:00:08.303Z,3.08
2019-02-12T14:02:37.473Z,3.90
2019-02-12T14:05:09.717Z,3.40
2019-02-12T14:07:38.874Z,3.90
2019-02-12T14:10:08.652Z,4.03
2019-02-12T14:12:37.707Z,3.60
2019-02-12T14:15:07.840Z,3.27
2019-02-12T14:17:36.890Z,3.60
2019-02-12T14:20:08.297Z,3.65
2019-02-12T14:22:37.262Z,3.10
2019-02-12T14:25:06.741Z,3.73
2019-02-12T14:27:35.749Z,3.63
2019-02-12T14:30:04.989Z,3.17
2019-02-12T14:32:34.050Z,3.40
2019-02-12T14:35:02.993Z,3.03
2019-02-12T14:37:31.946Z,3.13
2019-02-12T14:40:00.943Z,2.70
2019-02-12T14:42:29.974Z,2.97
2019-02-12T14:44:58.920Z,2.53
2019-02-12T14:47:27.858Z,2.50
2019-02-12T14:49:56.887Z,2.80
2019-02-12T14:52:26.053Z,2.77
2019-02-12T14:54:55.172Z,2.43
2019-02-12T14:57:24.180Z,2.80
2019-02-12T14:59:53.136Z,3.37
2019-02-12T15:02:22.263Z,2.63
2019-02-12T15:04:51.303Z,2.40
2019-02-12T15:07:20.318Z,2.60
2019-02-12T15:09:49.858Z,2.10
2019-02-12T15:12:18.961Z,2.63
2019-02-12T15:14:49.229Z,2.87
2019-02-12T15:17:18.271Z,3.27
2019-02-12T15:19:47.233Z,2.87
2019-02-12T15:22:16.181Z,3.07
2019-02-12T15:24:45.233Z,3.17
2019-02-12T15:27:14.373Z,2.70
2019-02-12T15:29:43.350Z,2.83
2019-02-12T15:32:12.223Z,3.30
2019-02-12T15:34:41.518Z,3.20
2019-02-12T15:37:10.493Z,2.63
2019-02-12T15:39:39.530Z,2.83
2019-02-12T15:42:08.642Z,3.47
2019-02-12T15:44:37.731Z,3.77
2019-02-12T15:47:06.726Z,2.60
2019-02-12T15:49:35.689Z,3.00
2019-02-12T15:52:06.860Z,3.20
2019-02-12T15:54:35.942Z,3.20
2019-02-12T15:57:05.098Z,3.37
2019-02-12T15:59:34.214Z,3.00
2019-02-12T16:02:03.238Z,2.83
2019-02-12T16:04:32.162Z,3.10
2019-02-12T16:07:01.973Z,3.47
2019-02-12T16:09:31.558Z,3.00
2019-02-12T16:12:02.496Z,2.57
2019-02-12T16:14:32.969Z,2.33
2019-02-12T16:17:01.916Z,3.00
2019-02-12T16:19:32.134Z,2.90
2019-02-12T16:22:01.282Z,3.13
2019-02-12T16:24:30.333Z,3.67
2019-02-12T16:26:59.406Z,3.00
2019-02-12T16:29:28.529Z,4.00
2019-02-12T16:32:00.343Z,3.20
2019-02-12T16:34:29.494Z,3.07
2019-02-12T16:36:58.666Z,2.70
2019-02-12T16:39:27.646Z,2.93
2019-02-12T16:41:56.771Z,3.50
2019-02-12T16:44:25.797Z,3.33
2019-02-12T16:46:54.907Z,4.17
2019-02-12T16:49:23.947Z,3.30
2019-02-12T16:51:52.866Z,3.17
2019-02-12T16:54:21.822Z,3.20
2019-02-12T16:56:50.826Z,3.43
2019-02-12T16:59:19.786Z,3.67
2019-02-12T17:01:48.735Z,3.70
2019-02-12T17:04:17.782Z,3.23
2019-02-12T17:06:46.697Z,3.53
2019-02-12T17:09:15.702Z,3.73
2019-02-12T17:11:45.613Z,3.50
2019-02-12T17:14:14.636Z,4.03
2019-02-12T17:16:43.578Z,3.50
2019-02-12T17:19:12.632Z,3.50
2019-02-12T17:21:41.756Z,3.47
2019-02-12T17:24:10.941Z,4.20
2019-02-12T17:26:39.943Z,3.47
2019-02-12T17:29:09.037Z,3.03
2019-02-12T17:31:38.054Z,3.70
2019-02-12T17:34:07.230Z,3.70
2019-02-12T17:36:38.453Z,4.00
2019-02-12T17:39:07.618Z,4.00
2019-02-12T17:41:44.786Z,3.97
2019-02-12T17:44:15.023Z,3.37
2019-02-12T17:46:44.177Z,3.37
2019-02-12T17:49:13.193Z,3.73
2019-02-12T17:51:42.169Z,3.83
2019-02-12T17:54:14.235Z,3.90
2019-02-12T17:56:43.409Z,4.35
2019-02-12T17:59:12.564Z,3.60
2019-02-12T18:01:41.574Z,3.60
2019-02-12T18:04:10.569Z,3.97
2019-02-12T18:06:39.672Z,3.90
2019-02-12T18:09:08.782Z,4.77
2019-02-12T18:11:37.934Z,3.60
2019-02-12T18:14:07.013Z,4.80
2019-02-12T18:16:36.058Z,4.00
2019-02-12T18:19:05.162Z,3.80
2019-02-12T18:21:34.175Z,3.80
2019-02-12T18:24:03.125Z,3.87
2019-02-12T18:26:33.584Z,3.10
2019-02-12T18:29:02.769Z,4.43
2019-02-12T18:31:31.810Z,3.83
2019-02-12T18:34:00.798Z,3.97
2019-02-12T18:36:29.902Z,3.80
2019-02-12T18:38:58.909Z,4.00
2019-02-12T18:41:27.909Z,3.87
2019-02-12T18:44:00.385Z,4.30
2019-02-12T18:46:31.319Z,3.70
2019-02-12T18:49:02.377Z,3.73
2019-02-12T18:51:32.486Z,3.70
2019-02-12T18:54:02.664Z,3.87
2019-02-12T18:56:31.694Z,3.97
2019-02-12T18:59:01.968Z,3.80
2019-02-12T19:01:33.092Z,4.03
2019-02-12T19:04:02.302Z,3.70
2019-02-12T19:06:31.477Z,3.20
2019-02-12T19:09:00.585Z,5.00
2019-02-12T19:11:29.544Z,3.57
2019-02-12T19:14:00.730Z,4.03
2019-02-12T19:16:30.133Z,4.00
2019-02-12T19:18:59.141Z,4.37
2019-02-12T19:21:28.393Z,4.33
2019-02-12T19:23:57.329Z,4.53
2019-02-12T19:26:26.413Z,3.63
2019-02-12T19:28:55.571Z,4.07
2019-02-12T19:31:25.713Z,3.60
2019-02-12T19:33:54.691Z,4.20
2019-02-12T19:36:23.630Z,3.57
2019-02-12T19:38:52.594Z,3.60
2019-02-12T19:41:22.506Z,4.33
2019-02-12T19:43:52.651Z,4.47
2019-02-12T19:46:21.921Z,4.13
2019-02-12T19:48:51.386Z,3.67
2019-02-12T19:51:20.720Z,3.30
2019-02-12T19:53:51.860Z,3.50
2019-02-12T19:56:21.821Z,4.03
2019-02-12T19:58:51.163Z,4.37
2019-02-12T20:01:20.648Z,3.80
2019-02-12T20:03:49.793Z,4.00
2019-02-12T20:06:19.257Z,3.93
2019-02-12T20:08:48.478Z,4.23
2019-02-12T20:11:17.512Z,4.23
2019-02-12T20:13:46.654Z,5.13
2019-02-12T20:16:15.725Z,3.93
2019-02-12T20:18:48.086Z,3.57
2019-02-12T20:21:17.262Z,4.20
2019-02-12T20:23:46.507Z,4.10
2019-02-12T20:26:17.997Z,4.23
2019-02-12T20:28:47.257Z,3.30
2019-02-12T20:31:16.341Z,3.30
2019-02-12T20:33:45.452Z,3.40
2019-02-12T20:36:14.614Z,4.20
2019-02-12T20:38:43.640Z,3.77
2019-02-12T20:41:13.941Z,4.40
2019-02-12T20:43:43.374Z,4.13
2019-02-12T20:46:12.494Z,3.60
2019-02-12T20:48:41.647Z,3.43
2019-02-12T20:51:10.796Z,3.53
2019-02-12T20:53:39.955Z,3.80
2019-02-12T20:56:09.042Z,3.53
2019-02-12T20:58:38.171Z,3.53
2019-02-12T21:01:07.290Z,4.13
2019-02-12T21:03:36.396Z,4.13
2019-02-12T21:06:05.685Z,3.30
2019-02-12T21:08:34.903Z,3.83
2019-02-12T21:11:05.063Z,3.37
2019-02-12T21:13:34.167Z,2.77
2019-02-12T21:16:04.298Z,3.50
2019-02-12T21:18:35.743Z,3.33
2019-02-12T21:21:04.902Z,3.03
2019-02-12T21:23:34.107Z,3.10
2019-02-12T21:26:03.239Z,3.87
2019-02-12T21:28:32.419Z,3.53
2019-02-12T21:31:01.501Z,3.40
2019-02-12T21:33:30.625Z,3.70
2019-02-12T21:35:59.613Z,3.37
2019-02-12T21:38:29.743Z,4.30
2019-02-12T21:40:58.779Z,3.70
2019-02-12T21:43:29.937Z,3.13
2019-02-12T21:46:07.867Z,3.70
2019-02-12T21:48:37.906Z,3.43
2019-02-12T21:51:06.947Z,3.50
2019-02-12T21:53:36.056Z,2.90
2019-02-12T21:56:05.302Z,3.40
2019-02-12T21:58:34.461Z,3.63
2019-02-12T22:01:05.596Z,4.30
2019-02-12T22:03:35.006Z,4.20
2019-02-12T22:06:04.010Z,4.03
2019-02-12T22:08:32.986Z,3.13
2019-02-12T22:11:02.101Z,3.40
2019-02-12T22:13:31.230Z,4.80
2019-02-12T22:16:00.372Z,3.80
2019-02-12T22:18:29.375Z,3.17
2019-02-12T22:20:58.458Z,3.53
2019-02-12T22:23:28.541Z,3.57
2019-02-12T22:25:57.589Z,4.10
2019-02-12T22:28:26.589Z,3.80
2019-02-12T22:30:55.567Z,4.30
2019-02-12T22:33:26.031Z,3.60
2019-02-12T22:35:55.093Z,3.53
2019-02-12T22:38:24.135Z,3.40
2019-02-12T22:40:53.212Z,4.07
2019-02-12T22:43:22.384Z,3.40
2019-02-12T22:45:51.579Z,4.40
2019-02-12T22:48:22.631Z,3.63
2019-02-12T22:50:51.737Z,3.27
2019-02-12T22:53:20.930Z,4.40
2019-02-12T22:55:49.995Z,4.33
2019-02-12T22:58:18.953Z,4.27
2019-02-12T23:01:03.660Z,4.13
2019-02-12T23:03:32.800Z,3.47
2019-02-12T23:06:01.890Z,3.80
2019-02-12T23:08:30.981Z,3.73
2019-02-12T23:11:00.095Z,3.00
2019-02-12T23:13:29.652Z,3.63
2019-02-12T23:15:58.662Z,3.87
2019-02-12T23:18:27.602Z,3.93
2019-02-12T23:20:56.632Z,3.40
2019-02-12T23:23:25.493Z,3.10
2019-02-12T23:25:54.442Z,3.87
2019-02-12T23:28:23.534Z,3.40
2019-02-12T23:30:52.493Z,3.33
2019-02-12T23:33:21.524Z,3.40
2019-02-12T23:35:50.602Z,4.10
2019-02-12T23:38:19.995Z,3.27
2019-02-12T23:40:49.081Z,3.23
2019-02-12T23:43:18.011Z,3.80
2019-02-12T23:45:47.141Z,4.10
2019-02-12T23:48:16.064Z,3.70
2019-02-12T23:50:45.081Z,5.13
2019-02-12T23:53:15.210Z,3.53
2019-02-12T23:55:44.158Z,3.70
2019-02-12T23:58:13.109Z,4.40
